createdAt,value
2019-03-27T00:02:19.472Z,8.40
2019-03-27T00:04:52.144Z,8.97
2019-03-27T00:07:24.728Z,11.47
2019-03-27T00:09:57.408Z,11.73
2019-03-27T00:12:29.977Z,10.40
2019-03-27T00:15:12.831Z,9.90
2019-03-27T00:17:36.780Z,9.90
2019-03-27T00:20:12.622Z,9.63
2019-03-27T00:22:46.846Z,11.30
2019-03-27T00:25:19.430Z,12.97
2019-03-27T00:27:51.730Z,16.30
2019-03-27T00:30:24.269Z,16.93
2019-03-27T00:32:56.468Z,15.67
2019-03-27T00:35:29.013Z,13.67
2019-03-27T00:38:02.409Z,11.77
2019-03-27T00:40:34.985Z,10.17
2019-03-27T00:43:07.973Z,8.83
2019-03-27T00:45:40.594Z,7.63
2019-03-27T00:48:13.628Z,8.47
2019-03-27T00:50:46.212Z,8.90
2019-03-27T00:53:18.781Z,7.07
2019-03-27T00:55:51.359Z,6.80
2019-03-27T00:58:23.554Z,6.70
2019-03-27T01:01:06.243Z,7.40
2019-03-27T01:03:38.932Z,9.37
2019-03-27T01:06:13.238Z,7.60
2019-03-27T01:08:45.815Z,7.93
2019-03-27T01:11:18.390Z,10.57
2019-03-27T01:13:50.980Z,8.13
2019-03-27T01:16:23.551Z,15.27
2019-03-27T01:18:56.133Z,12.17
2019-03-27T01:21:28.698Z,10.10
2019-03-27T01:24:01.284Z,9.43
2019-03-27T01:26:33.858Z,9.27
2019-03-27T01:29:06.425Z,9.80
2019-03-27T01:31:40.144Z,9.00
2019-03-27T01:34:12.714Z,7.73
2019-03-27T01:36:45.372Z,7.83
2019-03-27T01:39:17.957Z,7.57
2019-03-27T01:41:50.548Z,9.13
2019-03-27T01:44:23.427Z,8.57
2019-03-27T01:46:56.005Z,7.60
2019-03-27T01:49:28.568Z,10.13
2019-03-27T01:52:00.699Z,8.10
2019-03-27T01:54:32.903Z,10.23
2019-03-27T01:57:05.392Z,9.80
2019-03-27T01:59:37.975Z,9.27
2019-03-27T02:02:10.542Z,9.23
2019-03-27T02:04:43.133Z,10.17
2019-03-27T02:07:15.806Z,11.60
2019-03-27T02:09:48.380Z,10.13
2019-03-27T02:12:20.942Z,9.53
2019-03-27T02:14:53.535Z,9.87
2019-03-27T02:17:26.114Z,9.53
2019-03-27T02:19:58.311Z,11.20
2019-03-27T02:22:30.847Z,11.47
2019-03-27T02:25:03.050Z,10.60
2019-03-27T02:27:35.604Z,10.53
2019-03-27T02:30:10.270Z,10.67
2019-03-27T02:32:42.421Z,10.10
2019-03-27T02:35:15.069Z,11.03
2019-03-27T02:37:47.651Z,11.10
2019-03-27T02:40:19.858Z,13.57
2019-03-27T02:42:52.439Z,16.40
2019-03-27T02:45:25.067Z,13.00
2019-03-27T02:47:57.651Z,12.33
2019-03-27T02:50:30.535Z,10.90
2019-03-27T02:53:04.638Z,11.53
2019-03-27T02:55:37.215Z,10.47
2019-03-27T02:58:09.857Z,10.10
2019-03-27T03:00:42.467Z,10.90
2019-03-27T03:03:15.045Z,11.80
2019-03-27T03:06:00.242Z,10.20
2019-03-27T03:08:36.805Z,10.80
2019-03-27T03:11:09.013Z,11.20
2019-03-27T03:13:41.543Z,11.30
2019-03-27T03:16:15.336Z,13.37
2019-03-27T03:18:47.925Z,16.73
2019-03-27T03:21:20.567Z,14.70
2019-03-27T03:23:52.688Z,17.03
2019-03-27T03:26:25.343Z,16.20
2019-03-27T03:28:57.914Z,16.80
2019-03-27T03:31:30.634Z,14.20
2019-03-27T03:34:03.360Z,10.70
2019-03-27T03:36:35.959Z,11.07
2019-03-27T03:39:08.210Z,11.40
2019-03-27T03:41:40.802Z,10.97
2019-03-27T03:44:13.385Z,11.63
2019-03-27T03:46:58.945Z,10.07
2019-03-27T03:49:20.170Z,11.30
2019-03-27T03:51:55.200Z,12.23
2019-03-27T03:54:27.836Z,11.37
2019-03-27T03:57:01.276Z,11.57
2019-03-27T03:59:34.057Z,14.27
2019-03-27T04:02:06.844Z,11.87
2019-03-27T04:04:39.416Z,11.17
2019-03-27T04:07:11.998Z,11.10
2019-03-27T04:09:44.568Z,11.30
2019-03-27T04:12:17.157Z,12.10
2019-03-27T04:14:49.761Z,11.63
2019-03-27T04:17:22.311Z,11.00
2019-03-27T04:19:54.874Z,11.70
2019-03-27T04:22:27.564Z,12.30
2019-03-27T04:25:00.505Z,12.67
2019-03-27T04:27:33.221Z,12.17
2019-03-27T04:30:07.843Z,15.37
2019-03-27T04:32:40.428Z,14.63
2019-03-27T04:35:13.517Z,12.77
2019-03-27T04:37:46.085Z,12.70
2019-03-27T04:40:18.673Z,11.63
2019-03-27T04:42:51.351Z,14.53
2019-03-27T04:45:23.922Z,14.43
2019-03-27T04:47:57.007Z,17.77
2019-03-27T04:50:29.585Z,17.47
2019-03-27T04:53:03.703Z,20.23
2019-03-27T04:55:36.285Z,15.63
2019-03-27T04:58:08.850Z,14.00
2019-03-27T05:00:58.129Z,12.33
2019-03-27T05:04:04.487Z,11.90
2019-03-27T05:06:43.618Z,15.43
2019-03-27T05:09:16.217Z,13.23
2019-03-27T05:11:48.773Z,13.70
2019-03-27T05:14:21.352Z,15.47
2019-03-27T05:16:53.933Z,14.73
2019-03-27T05:19:26.512Z,14.23
2019-03-27T05:22:00.524Z,13.33
2019-03-27T05:24:33.499Z,13.33
2019-03-27T05:27:06.067Z,14.03
2019-03-27T05:29:38.661Z,13.23
2019-03-27T05:32:11.235Z,14.63
2019-03-27T05:34:44.939Z,12.77
2019-03-27T05:37:17.518Z,12.20
2019-03-27T05:39:50.090Z,13.57
2019-03-27T05:42:22.661Z,12.70
2019-03-27T05:44:55.249Z,9.63
2019-03-27T05:47:27.823Z,16.67
2019-03-27T05:50:00.801Z,16.17
2019-03-27T05:52:33.380Z,16.13
2019-03-27T05:55:07.295Z,12.73
2019-03-27T05:57:39.863Z,13.33
2019-03-27T06:00:14.181Z,13.80
2019-03-27T06:02:46.320Z,13.30
2019-03-27T06:05:18.929Z,11.10
2019-03-27T06:07:52.427Z,14.70
2019-03-27T06:10:25.008Z,13.87
2019-03-27T06:12:57.154Z,11.40
2019-03-27T06:15:29.747Z,12.70
2019-03-27T06:18:12.533Z,13.23
2019-03-27T06:20:37.251Z,11.77
2019-03-27T06:23:09.835Z,10.73
2019-03-27T06:25:42.407Z,11.87
2019-03-27T06:28:14.998Z,10.07
2019-03-27T06:30:47.555Z,11.10
2019-03-27T06:33:20.034Z,11.67
2019-03-27T06:35:52.608Z,8.53
2019-03-27T06:38:25.194Z,9.87
2019-03-27T06:40:58.247Z,11.50
2019-03-27T06:43:30.959Z,10.23
2019-03-27T06:46:03.531Z,12.17
2019-03-27T06:48:36.127Z,11.87
2019-03-27T06:51:08.685Z,11.83
2019-03-27T06:53:41.155Z,11.80
2019-03-27T06:56:13.835Z,10.53
2019-03-27T06:58:54.335Z,10.40
2019-03-27T07:01:20.627Z,9.97
2019-03-27T07:03:53.215Z,12.10
2019-03-27T07:06:27.008Z,9.87
2019-03-27T07:08:59.593Z,12.13
2019-03-27T07:11:32.167Z,12.00
2019-03-27T07:14:04.640Z,11.53
2019-03-27T07:16:38.156Z,10.00
2019-03-27T07:19:10.752Z,8.47
2019-03-27T07:21:44.316Z,8.70
2019-03-27T07:24:16.894Z,8.87
2019-03-27T07:26:49.433Z,8.67
2019-03-27T07:29:21.945Z,8.53
2019-03-27T07:31:54.531Z,10.43
2019-03-27T07:34:27.206Z,8.97
2019-03-27T07:36:59.779Z,7.20
2019-03-27T07:39:32.532Z,8.13
2019-03-27T07:42:05.143Z,5.90
2019-03-27T07:44:37.724Z,6.63
2019-03-27T07:47:09.938Z,7.03
2019-03-27T07:49:42.463Z,6.17
2019-03-27T07:52:15.544Z,6.40
2019-03-27T07:54:48.429Z,6.00
2019-03-27T07:57:21.005Z,7.00
2019-03-27T07:59:53.480Z,5.77
2019-03-27T08:02:26.056Z,6.53
2019-03-27T08:04:58.177Z,5.03
2019-03-27T08:07:30.366Z,5.37
2019-03-27T08:10:02.884Z,4.50
2019-03-27T08:12:35.859Z,5.07
2019-03-27T08:15:10.171Z,4.43
2019-03-27T08:17:42.853Z,4.50
2019-03-27T08:20:15.846Z,4.70
2019-03-27T08:22:48.406Z,4.77
2019-03-27T08:25:20.999Z,3.57
2019-03-27T08:27:53.569Z,3.80
2019-03-27T08:30:26.448Z,3.20
2019-03-27T08:32:59.030Z,2.87
2019-03-27T08:35:31.493Z,3.40
2019-03-27T08:38:03.683Z,3.70
2019-03-27T08:40:36.249Z,3.30
2019-03-27T08:43:20.578Z,3.10
2019-03-27T08:45:46.107Z,3.70
2019-03-27T08:48:18.687Z,3.23
2019-03-27T08:50:52.292Z,2.03
2019-03-27T08:53:25.493Z,3.17
2019-03-27T08:55:58.053Z,3.23
2019-03-27T08:58:30.247Z,2.80
2019-03-27T09:01:02.801Z,3.20
2019-03-27T09:03:35.373Z,2.90
2019-03-27T09:06:07.505Z,2.30
2019-03-27T09:08:40.315Z,2.00
2019-03-27T09:11:14.024Z,2.73
2019-03-27T09:13:46.604Z,2.47
2019-03-27T09:16:19.076Z,2.57
2019-03-27T09:18:51.658Z,3.03
2019-03-27T09:21:24.232Z,2.40
2019-03-27T09:23:56.855Z,2.20
2019-03-27T09:26:28.965Z,2.47
2019-03-27T09:29:01.561Z,2.50
2019-03-27T09:31:44.022Z,2.67
2019-03-27T09:34:08.653Z,2.80
2019-03-27T09:36:40.774Z,2.60
2019-03-27T09:39:13.470Z,2.50
2019-03-27T09:41:45.973Z,2.10
2019-03-27T09:44:18.545Z,2.03
2019-03-27T09:46:51.020Z,2.70
2019-03-27T09:49:23.598Z,2.80
2019-03-27T09:51:56.186Z,2.13
2019-03-27T09:54:29.157Z,2.10
2019-03-27T09:57:01.645Z,2.40
2019-03-27T09:59:34.215Z,2.20
2019-03-27T10:02:06.788Z,1.90
2019-03-27T10:04:40.184Z,2.00
2019-03-27T10:07:12.882Z,1.90
2019-03-27T10:09:45.545Z,1.97
2019-03-27T10:12:18.129Z,1.97
2019-03-27T10:14:50.698Z,1.80
2019-03-27T10:17:23.922Z,1.50
2019-03-27T10:20:03.256Z,1.80
2019-03-27T10:22:30.787Z,1.90
2019-03-27T10:25:03.364Z,2.00
2019-03-27T10:27:35.945Z,2.50
2019-03-27T10:30:09.699Z,2.20
2019-03-27T10:32:42.222Z,2.40
2019-03-27T10:35:15.206Z,2.63
2019-03-27T10:37:47.796Z,2.00
2019-03-27T10:40:20.354Z,2.10
2019-03-27T10:42:52.992Z,1.80
2019-03-27T10:45:25.712Z,2.00
2019-03-27T10:47:57.901Z,2.23
2019-03-27T10:50:30.662Z,2.63
2019-03-27T10:53:03.249Z,2.33
2019-03-27T10:55:37.554Z,2.03
2019-03-27T10:58:10.154Z,2.20
2019-03-27T11:00:42.842Z,2.50
2019-03-27T11:03:15.493Z,2.07
2019-03-27T11:05:48.078Z,2.23
2019-03-27T11:08:20.645Z,2.30
2019-03-27T11:10:52.836Z,4.27
2019-03-27T11:13:25.383Z,2.73
2019-03-27T11:15:58.270Z,3.33
2019-03-27T11:18:30.848Z,4.10
2019-03-27T11:21:03.493Z,1.93
2019-03-27T11:23:36.001Z,1.83
2019-03-27T11:26:08.591Z,1.80
2019-03-27T11:28:41.165Z,1.70
2019-03-27T11:31:13.739Z,2.10
2019-03-27T11:33:46.306Z,1.67
2019-03-27T11:36:19.915Z,2.40
2019-03-27T11:38:52.498Z,1.90
2019-03-27T11:41:25.076Z,1.93
2019-03-27T11:43:57.650Z,1.90
2019-03-27T11:46:32.280Z,1.87
2019-03-27T11:49:04.328Z,2.40
2019-03-27T11:51:36.912Z,2.10
2019-03-27T11:54:09.379Z,3.80
2019-03-27T11:56:42.678Z,2.87
2019-03-27T11:59:15.258Z,2.20
2019-03-27T12:01:47.837Z,2.23
2019-03-27T12:04:20.403Z,2.20
2019-03-27T12:06:52.985Z,2.50
2019-03-27T12:09:25.565Z,2.60
2019-03-27T12:11:58.243Z,2.20
2019-03-27T12:14:30.813Z,2.50
2019-03-27T12:17:03.389Z,2.37
2019-03-27T12:19:37.866Z,2.47
2019-03-27T12:22:09.884Z,2.60
2019-03-27T12:24:42.565Z,2.87
2019-03-27T12:27:15.186Z,3.00
2019-03-27T12:29:47.702Z,2.57
2019-03-27T12:32:20.135Z,3.23
2019-03-27T12:34:52.767Z,3.80
2019-03-27T12:37:25.343Z,3.47
2019-03-27T12:39:57.923Z,3.43
2019-03-27T12:42:30.122Z,4.47
2019-03-27T12:45:04.807Z,6.73
2019-03-27T12:47:37.393Z,4.27
2019-03-27T12:50:10.982Z,3.93
2019-03-27T12:52:43.569Z,3.80
2019-03-27T12:55:16.656Z,3.80
2019-03-27T12:57:50.039Z,3.23
2019-03-27T13:00:23.242Z,4.20
2019-03-27T13:02:55.807Z,6.43
2019-03-27T13:05:28.388Z,4.20
2019-03-27T13:08:00.974Z,4.80
2019-03-27T13:10:33.551Z,3.50
2019-03-27T13:13:09.087Z,4.37
2019-03-27T13:15:41.664Z,3.77
2019-03-27T13:18:14.247Z,3.60
2019-03-27T13:20:46.825Z,3.43
2019-03-27T13:23:19.403Z,3.60
2019-03-27T13:25:51.973Z,4.53
2019-03-27T13:28:24.555Z,3.77
2019-03-27T13:30:57.132Z,3.07
2019-03-27T13:33:29.706Z,4.23
2019-03-27T13:36:02.287Z,3.60
2019-03-27T13:38:34.951Z,3.10
2019-03-27T13:41:07.426Z,3.60
2019-03-27T13:43:40.014Z,3.57
2019-03-27T13:46:12.490Z,3.83
2019-03-27T13:48:45.552Z,4.30
2019-03-27T13:51:18.257Z,4.60
2019-03-27T13:53:50.832Z,3.97
2019-03-27T13:56:23.304Z,4.40
2019-03-27T13:58:56.600Z,3.73
2019-03-27T14:01:29.074Z,5.03
2019-03-27T14:04:01.663Z,4.00
2019-03-27T14:06:34.221Z,4.60
2019-03-27T14:09:09.464Z,5.23
2019-03-27T14:11:42.197Z,5.90
2019-03-27T14:14:14.834Z,14.20
2019-03-27T14:16:47.403Z,9.37
2019-03-27T14:19:19.976Z,6.57
2019-03-27T14:21:54.734Z,5.70
2019-03-27T14:24:26.671Z,5.53
2019-03-27T14:27:00.877Z,7.33
2019-03-27T14:29:33.463Z,6.53
2019-03-27T14:32:06.043Z,6.00
2019-03-27T14:34:38.607Z,4.07
2019-03-27T14:37:11.190Z,5.23
2019-03-27T14:39:43.774Z,6.03
2019-03-27T14:42:16.353Z,4.83
2019-03-27T14:44:50.165Z,4.77
2019-03-27T14:47:23.751Z,4.13
2019-03-27T14:49:56.322Z,3.83
2019-03-27T14:52:28.893Z,4.47
2019-03-27T14:55:03.123Z,4.80
2019-03-27T14:57:35.286Z,6.77
2019-03-27T15:00:12.061Z,5.67
2019-03-27T15:02:44.629Z,5.33
2019-03-27T15:05:17.223Z,5.50
2019-03-27T15:07:49.787Z,6.77
2019-03-27T15:10:23.394Z,8.17
2019-03-27T15:12:55.969Z,6.00
2019-03-27T15:15:28.546Z,5.83
2019-03-27T15:18:01.123Z,5.93
2019-03-27T15:20:33.695Z,7.77
2019-03-27T15:23:06.994Z,8.40
2019-03-27T15:25:39.558Z,6.33
2019-03-27T15:28:12.033Z,7.00
2019-03-27T15:30:44.614Z,9.30
2019-03-27T15:33:17.195Z,7.00
2019-03-27T15:35:49.774Z,8.00
2019-03-27T15:38:22.355Z,11.90
2019-03-27T15:40:54.933Z,22.37
2019-03-27T15:43:27.068Z,19.17
2019-03-27T15:45:59.674Z,20.40
2019-03-27T15:48:32.017Z,14.60
2019-03-27T15:51:04.620Z,7.27
2019-03-27T15:53:37.191Z,5.97
2019-03-27T15:56:09.772Z,13.53
2019-03-27T15:58:42.357Z,8.70
2019-03-27T16:01:16.566Z,9.50
2019-03-27T16:03:49.130Z,7.83
2019-03-27T16:06:21.710Z,8.13
2019-03-27T16:08:54.290Z,5.27
2019-03-27T16:11:26.925Z,11.70
2019-03-27T16:13:59.441Z,16.57
2019-03-27T16:16:32.235Z,13.60
2019-03-27T16:19:05.937Z,7.97
2019-03-27T16:21:38.502Z,6.43
2019-03-27T16:24:10.977Z,8.27
2019-03-27T16:26:43.514Z,12.40
2019-03-27T16:29:16.023Z,9.47
2019-03-27T16:31:48.616Z,7.93
2019-03-27T16:34:21.189Z,8.80
2019-03-27T16:36:54.274Z,5.40
2019-03-27T16:39:26.958Z,6.70
2019-03-27T16:41:59.537Z,7.10
2019-03-27T16:44:32.102Z,5.93
2019-03-27T16:47:04.693Z,7.00
2019-03-27T16:49:36.920Z,8.67
2019-03-27T16:52:09.538Z,7.87
2019-03-27T16:54:42.413Z,5.90
2019-03-27T16:57:14.991Z,6.30
2019-03-27T16:59:47.573Z,7.27
2019-03-27T17:02:21.061Z,9.90
2019-03-27T17:04:53.642Z,10.33
2019-03-27T17:07:26.223Z,10.47
2019-03-27T17:09:58.892Z,11.60
2019-03-27T17:12:31.683Z,5.50
2019-03-27T17:15:04.982Z,6.40
2019-03-27T17:17:37.552Z,6.43
2019-03-27T17:20:13.909Z,7.40
2019-03-27T17:22:46.495Z,5.77
2019-03-27T17:25:19.046Z,7.93
2019-03-27T17:27:51.621Z,6.60
2019-03-27T17:30:24.199Z,8.10
2019-03-27T17:32:56.876Z,9.37
2019-03-27T17:35:29.352Z,8.83
2019-03-27T17:38:01.929Z,7.97
2019-03-27T17:40:34.411Z,11.27
2019-03-27T17:43:06.979Z,13.27
2019-03-27T17:45:40.686Z,23.37
2019-03-27T17:48:13.260Z,17.60
2019-03-27T17:50:45.839Z,14.33
2019-03-27T17:53:31.051Z,9.40
2019-03-27T17:55:52.527Z,8.23
2019-03-27T17:58:25.101Z,6.43
2019-03-27T18:00:58.600Z,9.37
2019-03-27T18:03:31.387Z,10.00
2019-03-27T18:06:03.972Z,9.20
2019-03-27T18:08:36.536Z,8.23
2019-03-27T18:11:09.111Z,8.90
2019-03-27T18:13:42.202Z,8.10
2019-03-27T18:16:17.161Z,9.90
2019-03-27T18:18:48.987Z,8.93
2019-03-27T18:21:21.414Z,11.17
2019-03-27T18:23:54.202Z,12.60
2019-03-27T18:26:26.723Z,10.93
2019-03-27T18:28:59.298Z,11.33
2019-03-27T18:31:31.878Z,12.50
2019-03-27T18:34:04.453Z,10.17
2019-03-27T18:36:37.030Z,17.10
2019-03-27T18:39:10.629Z,13.50
2019-03-27T18:41:43.221Z,11.37
2019-03-27T18:44:15.784Z,15.07
2019-03-27T18:46:48.258Z,9.70
2019-03-27T18:49:20.834Z,10.47
2019-03-27T18:51:53.411Z,14.07
2019-03-27T18:54:26.090Z,12.77
2019-03-27T18:56:58.670Z,10.33
2019-03-27T18:59:31.516Z,10.30
2019-03-27T19:02:04.235Z,10.13
2019-03-27T19:04:36.808Z,11.27
2019-03-27T19:07:09.281Z,13.00
2019-03-27T19:09:41.863Z,12.00
2019-03-27T19:12:14.433Z,10.50
2019-03-27T19:14:47.011Z,12.73
2019-03-27T19:17:19.136Z,13.27
2019-03-27T19:19:51.651Z,11.20
2019-03-27T19:22:24.228Z,13.00
2019-03-27T19:24:56.806Z,9.03
2019-03-27T19:27:29.438Z,10.90
2019-03-27T19:30:02.066Z,9.73
2019-03-27T19:32:34.739Z,13.50
2019-03-27T19:35:08.035Z,10.40
2019-03-27T19:37:40.168Z,11.13
2019-03-27T19:40:13.698Z,10.37
2019-03-27T19:42:46.577Z,12.00
2019-03-27T19:45:19.167Z,12.63
2019-03-27T19:47:51.291Z,8.00
2019-03-27T19:50:23.906Z,11.10
2019-03-27T19:52:56.582Z,10.60
2019-03-27T19:55:28.884Z,10.90
2019-03-27T19:58:01.530Z,10.10
2019-03-27T20:00:34.217Z,12.57
2019-03-27T20:03:06.741Z,9.90
2019-03-27T20:05:39.427Z,14.03
2019-03-27T20:08:11.939Z,10.17
2019-03-27T20:10:44.515Z,13.73
2019-03-27T20:13:17.088Z,10.57
2019-03-27T20:15:49.669Z,12.83
2019-03-27T20:18:23.781Z,7.30
2019-03-27T20:20:56.197Z,12.13
2019-03-27T20:23:28.733Z,7.43
2019-03-27T20:26:01.507Z,6.07
2019-03-27T20:28:33.981Z,5.20
2019-03-27T20:31:06.565Z,8.77
2019-03-27T20:33:39.196Z,9.60
2019-03-27T20:36:13.105Z,10.73
2019-03-27T20:38:46.137Z,10.60
2019-03-27T20:41:18.308Z,11.23
2019-03-27T20:43:50.886Z,10.57
2019-03-27T20:46:25.528Z,9.40
2019-03-27T20:48:57.571Z,4.70
2019-03-27T20:51:30.290Z,10.47
2019-03-27T20:54:02.829Z,12.70
2019-03-27T20:56:35.400Z,9.93
2019-03-27T20:59:07.881Z,9.93
2019-03-27T21:01:40.456Z,8.43
2019-03-27T21:04:13.067Z,8.83
2019-03-27T21:06:45.608Z,12.67
2019-03-27T21:09:18.329Z,11.03
2019-03-27T21:11:50.964Z,10.53
2019-03-27T21:14:23.100Z,14.00
2019-03-27T21:16:55.965Z,12.37
2019-03-27T21:19:28.387Z,10.80
2019-03-27T21:22:00.966Z,9.70
2019-03-27T21:24:33.535Z,12.77
2019-03-27T21:27:06.126Z,7.87
2019-03-27T21:29:38.591Z,12.23
2019-03-27T21:32:11.162Z,12.07
2019-03-27T21:34:52.737Z,11.80
2019-03-27T21:37:29.326Z,9.70
2019-03-27T21:40:02.281Z,12.27
2019-03-27T21:42:38.896Z,12.07
2019-03-27T21:45:13.876Z,11.20
2019-03-27T21:47:47.959Z,12.60
2019-03-27T21:50:22.629Z,13.87
2019-03-27T21:53:01.145Z,13.33
2019-03-27T21:55:42.594Z,12.17
2019-03-27T21:58:11.634Z,12.77
2019-03-27T22:00:45.951Z,11.60
2019-03-27T22:03:29.916Z,11.43
2019-03-27T22:06:20.422Z,13.53
2019-03-27T22:09:08.962Z,13.33
2019-03-27T22:11:57.640Z,12.77
2019-03-27T22:14:42.448Z,13.63
2019-03-27T22:17:19.790Z,13.87
2019-03-27T22:19:53.516Z,14.87
2019-03-27T22:22:27.943Z,13.83
2019-03-27T22:25:01.085Z,10.07
2019-03-27T22:27:34.426Z,10.70
2019-03-27T22:30:09.496Z,12.00
2019-03-27T22:32:43.532Z,10.73
2019-03-27T22:35:16.392Z,14.63
2019-03-27T22:37:51.092Z,15.27
2019-03-27T22:40:24.682Z,14.37
2019-03-27T22:42:58.084Z,12.93
2019-03-27T22:45:35.264Z,12.33
2019-03-27T22:48:08.135Z,14.23
2019-03-27T22:50:40.661Z,11.93
2019-03-27T22:53:13.234Z,12.03
2019-03-27T22:55:50.142Z,13.07
2019-03-27T22:58:19.926Z,12.73
2019-03-27T23:00:55.063Z,11.43
2019-03-27T23:03:27.646Z,12.70
2019-03-27T23:06:00.213Z,14.27
2019-03-27T23:08:32.790Z,14.00
2019-03-27T23:11:06.391Z,12.33
2019-03-27T23:13:38.965Z,12.10
2019-03-27T23:16:11.541Z,10.93
2019-03-27T23:18:43.668Z,12.40
2019-03-27T23:21:16.190Z,12.63
2019-03-27T23:23:48.765Z,10.03
2019-03-27T23:26:21.343Z,13.20
2019-03-27T23:28:53.818Z,10.83
2019-03-27T23:31:26.434Z,13.47
2019-03-27T23:34:00.474Z,8.73
2019-03-27T23:36:32.670Z,12.93
2019-03-27T23:39:07.807Z,11.87
2019-03-27T23:41:40.381Z,11.23
2019-03-27T23:44:12.502Z,14.20
2019-03-27T23:46:44.789Z,12.97
2019-03-27T23:49:17.295Z,13.13
2019-03-27T23:51:49.871Z,10.87
2019-03-27T23:54:22.550Z,13.67
2019-03-27T23:56:55.126Z,11.60
2019-03-27T23:59:27.703Z,12.37
